createdAt,value
2018-03-31T00:15:08.340Z,6.41
2018-03-31T00:35:38.391Z,6.41
2018-03-31T00:56:10.588Z,6.35
2018-03-31T01:16:41.877Z,6.35
2018-03-31T01:37:14.990Z,5.96
2018-03-31T01:57:47.187Z,5.36
2018-03-31T02:18:17.238Z,4.89
2018-03-31T02:38:47.598Z,4.88
2018-03-31T03:17:23.309Z,3.94
2018-03-31T03:37:53.666Z,4.10
2018-03-31T03:58:25.860Z,4.18
2018-03-31T04:18:57.145Z,4.10
2018-03-31T04:39:26.272Z,4.25
2018-03-31T04:59:58.475Z,3.98
2018-03-31T05:20:34.016Z,3.73
2018-03-31T05:41:06.867Z,3.35
2018-03-31T06:01:38.144Z,3.24
2018-03-31T06:22:10.613Z,3.32
2018-03-31T06:42:42.541Z,3.05
2018-03-31T07:03:11.672Z,3.60
2018-03-31T07:23:46.955Z,4.06
2018-03-31T07:44:25.442Z,4.52
2018-03-31T08:05:03.744Z,5.15
2018-03-31T08:25:37.671Z,5.84
2018-03-31T08:46:09.196Z,6.85
2018-03-31T09:06:47.304Z,7.91
2018-03-31T09:27:15.190Z,9.01
2018-03-31T09:47:49.776Z,9.56
2018-03-31T10:08:25.733Z,10.07
2018-03-31T10:28:58.565Z,10.43
2018-03-31T10:49:30.395Z,10.73
2018-03-31T11:10:04.179Z,11.09
2018-03-31T11:30:36.382Z,11.41
2018-03-31T11:51:05.817Z,11.83
2018-03-31T12:11:37.111Z,11.85
2018-03-31T12:32:14.452Z,12.24
2018-03-31T12:52:49.688Z,12.22
2018-03-31T13:13:23.891Z,12.00
2018-03-31T13:33:59.102Z,12.27
2018-03-31T13:54:32.351Z,12.78
2018-03-31T14:15:07.632Z,13.31
2018-03-31T14:35:38.467Z,15.38
2018-03-31T14:56:20.041Z,15.86
2018-03-31T15:16:49.931Z,16.76
2018-03-31T15:37:21.210Z,17.50
2018-03-31T15:57:54.329Z,15.88
2018-03-31T16:18:26.527Z,15.15
2018-03-31T16:38:58.034Z,14.18
2018-03-31T16:59:29.200Z,13.51
2018-03-31T17:20:02.209Z,12.97
2018-03-31T17:40:33.601Z,12.25
2018-03-31T18:01:10.851Z,11.23
2018-03-31T18:21:45.105Z,10.44
2018-03-31T18:42:17.270Z,10.27
2018-03-31T19:02:47.232Z,9.97
2018-03-31T19:23:16.325Z,8.79
2018-03-31T19:43:48.524Z,8.10
2018-03-31T20:04:19.007Z,7.54
2018-03-31T20:24:52.218Z,6.96
2018-03-31T20:45:25.125Z,7.06
2018-03-31T21:05:56.406Z,6.62
2018-03-31T21:26:28.606Z,6.66
2018-03-31T21:47:01.723Z,6.57
2018-03-31T22:07:38.266Z,6.55
2018-03-31T22:28:10.464Z,6.59
2018-03-31T22:48:43.549Z,6.55
2018-03-31T23:09:13.594Z,6.50
2018-03-31T23:29:42.730Z,6.34
2018-03-31T23:50:13.700Z,6.27
